Time;durP1;ratioP1;P1;durP2;ratioP2;P2;SDS_P1;SDS_P2;PMS_P1;PMS_P2;Temp;Humidity;BMP_temperature;BMP_pressure;BME280_temperature;BME280_humidity;BME280_pressure;Samples;Min_cycle;Max_cycle;Signal;HPM_P1;HPM_P2
2021/07/14 00:01:36;;;;;;;0.40;0.40;;;;;;;16.79;74.88;98329.00;5135098;27;39078;-88
2021/07/14 00:04:03;;;;;;;0.27;0.27;;;;;;;16.85;75.10;98346.28;5132557;27;42446;-86
2021/07/14 00:06:49;;;;;;;0.60;0.60;;;;;;;16.83;74.92;98349.09;5134251;27;42167;-88
2021/07/14 00:09:17;;;;;;;0.27;0.27;;;;;;;16.73;75.11;98348.28;5153176;27;42371;-86
2021/07/14 00:11:52;;;;;;;0.40;0.40;;;;;;;16.57;75.22;98321.28;5136021;27;39218;-86
2021/07/14 00:14:34;;;;;;;0.50;0.50;;;;;;;16.77;75.13;98364.91;5135011;27;40623;-86
2021/07/14 00:17:21;;;;;;;0.40;0.40;;;;;;;16.66;75.20;98336.50;5135994;27;41947;-88
2021/07/14 00:22:35;;;;;;;0.40;0.40;;;;;;;16.68;75.24;98339.88;5135475;27;40222;-86
2021/07/14 00:25:06;;;;;;;0.30;0.30;;;;;;;16.64;75.43;98353.69;5135753;27;41035;-86
2021/07/14 00:27:39;;;;;;;0.70;0.70;;;;;;;16.60;75.85;98360.28;5152739;27;42838;-86
2021/07/14 00:30:09;;;;;;;0.30;0.30;;;;;;;16.54;75.68;98353.69;5135558;27;41452;-87
2021/07/14 00:32:36;;;;;;;0.33;0.33;;;;;;;16.40;76.23;98338.13;5135799;27;39227;-88
2021/07/14 00:35:14;;;;;;;0.60;0.60;;;;;;;16.39;76.24;98344.44;5154652;27;41726;-88
2021/07/14 00:37:41;;;;;;;0.83;0.60;;;;;;;16.48;76.76;98355.09;5135484;27;42166;-87
2021/07/14 00:40:11;;;;;;;0.67;0.67;;;;;;;16.46;76.87;98356.22;5118232;27;42655;-87
2021/07/14 00:42:39;;;;;;;0.40;0.40;;;;;;;16.37;76.73;98343.75;5135456;27;39092;-88
2021/07/14 00:45:07;;;;;;;0.50;0.50;;;;;;;16.33;76.99;98347.69;5135559;27;41638;-88
2021/07/14 00:47:36;;;;;;;0.57;0.57;;;;;;;16.44;76.89;98363.56;5153534;27;43798;-86
2021/07/14 00:50:05;;;;;;;0.60;0.50;;;;;;;16.43;76.95;98361.88;5136591;27;41586;-86
2021/07/14 00:52:32;;;;;;;0.60;0.60;;;;;;;16.50;76.63;98352.28;5138295;27;39845;-85
2021/07/14 00:54:59;;;;;;;0.40;0.40;;;;;;;16.57;76.40;98348.03;5140653;27;41092;-88
2021/07/14 00:57:29;;;;;;;1.10;0.60;;;;;;;16.69;76.17;98354.91;5141799;27;42002;-88
2021/07/14 00:59:56;;;;;;;0.60;0.50;;;;;;;16.57;76.12;98334.66;5157835;27;41284;-87
2021/07/14 01:02:25;;;;;;;0.30;0.30;;;;;;;16.74;75.84;98355.31;5138421;27;40413;-87
2021/07/14 01:04:57;;;;;;;0.50;0.50;;;;;;;16.79;76.19;98347.72;5139672;27;42128;-87
2021/07/14 01:07:26;;;;;;;0.47;0.47;;;;;;;16.85;75.77;98347.13;5138723;27;42758;-87
2021/07/14 01:09:56;;;;;;;0.27;0.27;;;;;;;16.78;75.86;98329.16;5139127;27;41824;-86
2021/07/14 01:12:32;;;;;;;0.60;0.60;;;;;;;16.91;75.97;98331.47;5138845;27;38742;-87
2021/07/14 01:15:05;;;;;;;0.53;0.43;;;;;;;16.69;76.02;98303.31;5140022;27;42426;-87
2021/07/14 01:17:36;;;;;;;0.40;0.40;;;;;;;16.69;76.01;98320.16;5139277;27;41781;-86
2021/07/14 01:20:19;;;;;;;0.60;0.60;;;;;;;16.64;76.33;98327.78;5156429;27;42523;-88
2021/07/14 01:22:59;;;;;;;0.60;0.60;;;;;;;16.57;76.30;98325.84;5139455;27;38923;-88
2021/07/14 01:25:38;;;;;;;0.50;0.50;;;;;;;16.51;76.68;98311.22;5138550;27;40643;-86
2021/07/14 01:28:06;;;;;;;0.40;0.40;;;;;;;16.51;76.62;98316.56;5139453;27;42026;-87
2021/07/14 01:30:33;;;;;;;0.40;0.40;;;;;;;16.48;76.45;98311.50;5138877;27;41509;-87
2021/07/14 01:33:03;;;;;;;0.50;0.43;;;;;;;16.32;76.44;98289.91;5139127;27;39854;-87
2021/07/14 01:35:33;;;;;;;0.40;0.40;;;;;;;16.39;76.62;98307.03;5138954;27;40872;-87
2021/07/14 01:38:02;;;;;;;0.50;0.50;;;;;;;16.37;76.74;98306.31;5156485;27;42217;-86
2021/07/14 01:40:31;;;;;;;0.60;0.53;;;;;;;16.30;76.65;98298.06;5139208;27;41095;-87
2021/07/14 01:43:00;;;;;;;0.40;0.40;;;;;;;16.35;77.07;98308.28;5138797;27;38993;-87
2021/07/14 01:45:31;;;;;;;0.40;0.40;;;;;;;16.19;76.89;98289.38;5138254;27;40840;-86
2021/07/14 01:48:26;;;;;;;0.30;0.30;;;;;;;16.23;76.86;98306.78;5154395;27;42790;-87
2021/07/14 01:50:54;;;;;;;0.80;0.80;;;;;;;16.21;77.01;98300.75;5156022;27;42334;-87
2021/07/14 01:53:23;;;;;;;0.60;0.60;;;;;;;16.14;77.30;98287.97;5155976;27;40304;-86
2021/07/14 01:55:52;;;;;;;0.30;0.30;;;;;;;16.30;77.14;98310.59;5138553;27;41863;-87
2021/07/14 01:58:19;;;;;;;0.50;0.50;;;;;;;16.36;76.69;98308.16;5138045;27;41825;-86
2021/07/14 02:00:52;;;;;;;0.73;0.73;;;;;;;16.42;76.62;98302.25;5137933;27;41399;-87
2021/07/14 02:03:39;;;;;;;0.73;0.60;;;;;;;16.53;76.14;98315.41;5137787;27;40552;-86
2021/07/14 02:06:07;;;;;;;0.50;0.50;;;;;;;16.58;76.59;98325.66;5138228;27;41072;-86
2021/07/14 02:08:36;;;;;;;0.40;0.40;;;;;;;16.34;76.49;98293.25;5137853;27;41782;-87
2021/07/14 02:11:03;;;;;;;0.43;0.43;;;;;;;16.58;76.32;98328.34;5137990;27;41541;-86
2021/07/14 02:13:31;;;;;;;1.03;1.03;;;;;;;16.70;76.13;98345.06;5138176;27;38911;-87
2021/07/14 02:16:01;;;;;;;0.40;0.40;;;;;;;16.76;76.18;98355.19;5137679;27;40988;-86
2021/07/14 02:18:34;;;;;;;0.60;0.53;;;;;;;16.74;76.19;98349.97;5136000;27;42905;-86
2021/07/14 02:21:07;;;;;;;0.53;0.53;;;;;;;16.82;75.97;98368.78;5138437;27;42426;-87
2021/07/14 02:23:36;;;;;;;0.47;0.47;;;;;;;16.77;76.03;98371.09;5137995;27;39282;-85
2021/07/14 02:26:05;;;;;;;0.70;0.60;;;;;;;16.76;76.05;98366.72;5136997;27;40696;-87
2021/07/14 02:28:32;;;;;;;0.53;0.53;;;;;;;16.77;76.07;98364.91;5137153;27;41961;-87
2021/07/14 02:31:01;;;;;;;0.50;0.50;;;;;;;16.83;75.86;98381.19;5137008;27;42194;-86
2021/07/14 02:33:30;;;;;;;0.47;0.47;;;;;;;16.88;76.00;98389.63;5136209;27;39347;-86
2021/07/14 02:36:01;;;;;;;0.60;0.60;;;;;;;16.92;75.96;98386.66;5137301;27;40641;-86
2021/07/14 02:38:32;;;;;;;0.60;0.60;;;;;;;16.83;75.60;98359.78;5120024;27;43002;-87
2021/07/14 02:41:06;;;;;;;0.47;0.47;;;;;;;16.79;75.44;98342.38;5137380;27;41098;-88
2021/07/14 02:43:35;;;;;;;0.50;0.50;;;;;;;16.98;75.57;98362.81;5154490;27;40072;-87
2021/07/14 02:46:07;;;;;;;0.70;0.70;;;;;;;16.88;75.26;98349.50;5155116;27;42029;-87
2021/07/14 02:48:36;;;;;;;0.40;0.40;;;;;;;16.87;75.30;98350.50;5136940;27;43050;-87
2021/07/14 02:51:05;;;;;;;0.57;0.57;;;;;;;16.94;75.31;98355.25;5136894;27;41550;-85
2021/07/14 02:53:39;;;;;;;0.50;0.50;;;;;;;16.95;75.40;98346.22;5137009;27;40161;-87
2021/07/14 02:56:14;;;;;;;0.60;0.50;;;;;;;16.97;75.24;98349.59;5137722;27;41743;-86
2021/07/14 02:58:45;;;;;;;0.33;0.33;;;;;;;16.91;75.15;98344.84;5137132;27;41853;-86
2021/07/14 03:01:15;;;;;;;0.80;0.70;;;;;;;16.97;75.21;98349.59;5136860;27;41210;-86
2021/07/14 03:03:43;;;;;;;0.77;0.50;;;;;;;16.98;75.19;98357.47;5136423;27;39877;-87
2021/07/14 03:06:10;;;;;;;0.87;0.60;;;;;;;17.06;75.42;98370.94;5137385;27;42009;-86
2021/07/14 03:08:38;;;;;;;0.50;0.50;;;;;;;16.99;75.31;98359.16;5136137;27;41941;-86
2021/07/14 03:11:07;;;;;;;0.57;0.57;;;;;;;16.93;75.19;98337.53;5136876;27;42611;-86
2021/07/14 03:13:36;;;;;;;0.50;0.50;;;;;;;17.00;75.18;98339.44;5135332;27;39162;-86
2021/07/14 03:16:04;;;;;;;0.60;0.60;;;;;;;17.02;75.17;98336.63;5136486;27;42181;-87
2021/07/14 03:18:34;;;;;;;0.37;0.37;;;;;;;16.95;75.19;98314.13;5136166;27;42765;-86
2021/07/14 03:21:03;;;;;;;0.60;0.60;;;;;;;17.01;74.96;98310.88;5136438;27;42089;-86
2021/07/14 03:23:31;;;;;;;0.40;0.40;;;;;;;17.08;75.24;98330.66;5153403;27;38705;-86
2021/07/14 03:26:01;;;;;;;1.00;0.60;;;;;;;17.09;75.29;98324.31;5136177;27;40669;-86
2021/07/14 03:28:31;;;;;;;0.50;0.50;;;;;;;17.14;75.06;98330.91;5135630;27;43030;-85
2021/07/14 03:31:01;;;;;;;0.30;0.30;;;;;;;17.07;74.82;98318.28;5135360;27;40934;-86
2021/07/14 03:33:29;;;;;;;0.57;0.50;;;;;;;17.08;74.75;98330.66;5136068;27;39889;-86
2021/07/14 03:35:59;;;;;;;0.80;0.50;;;;;;;17.11;75.08;98341.06;5136562;27;40827;-87
2021/07/14 03:38:28;;;;;;;0.40;0.40;;;;;;;17.11;74.73;98343.75;5135586;27;41773;-86
2021/07/14 03:40:56;;;;;;;0.40;0.40;;;;;;;17.16;74.72;98344.16;5136601;27;41232;-86
2021/07/14 03:43:24;;;;;;;0.40;0.40;;;;;;;17.13;75.18;98333.75;5135871;27;39224;-85
2021/07/14 03:45:52;;;;;;;0.60;0.60;;;;;;;17.16;74.78;98350.34;5136671;27;42020;-85
2021/07/14 03:48:22;;;;;;;0.70;0.70;;;;;;;17.25;75.07;98359.31;5135898;27;42004;-86
2021/07/14 03:50:50;;;;;;;0.50;0.50;;;;;;;17.14;75.12;98351.50;5136138;27;41189;-86
2021/07/14 03:53:21;;;;;;;0.70;0.70;;;;;;;17.26;75.22;98370.84;5135702;27;40403;-86
2021/07/14 03:55:48;;;;;;;0.40;0.40;;;;;;;17.17;75.06;98361.91;5136004;27;40612;-86
2021/07/14 03:58:16;;;;;;;0.40;0.40;;;;;;;17.17;74.96;98356.53;5135754;27;43211;-86
2021/07/14 04:00:44;;;;;;;0.80;0.80;;;;;;;17.17;75.20;98356.53;5135362;27;41743;-86
2021/07/14 04:03:11;;;;;;;0.53;0.53;;;;;;;17.20;74.74;98361.56;5132718;27;39231;-86
2021/07/14 04:05:42;;;;;;;0.57;0.57;;;;;;;17.19;74.90;98350.03;5114807;27;41039;-88
2021/07/14 04:08:10;;;;;;;0.70;0.70;;;;;;;17.23;74.85;98358.59;5115398;27;41729;-85
2021/07/14 04:10:39;;;;;;;0.40;0.40;;;;;;;17.28;74.78;98353.66;5116067;27;42450;-86
2021/07/14 04:13:06;;;;;;;0.50;0.40;;;;;;;17.36;74.77;98367.13;5118625;27;38926;-86
2021/07/14 04:15:33;;;;;;;0.60;0.60;;;;;;;17.32;74.70;98343.47;5114923;27;40724;-86
2021/07/14 04:18:00;;;;;;;0.40;0.40;;;;;;;17.34;75.15;98334.31;5114715;27;41711;-85
2021/07/14 04:20:27;;;;;;;0.70;0.60;;;;;;;17.47;74.56;98345.50;5115111;27;41232;-86
2021/07/14 04:22:55;;;;;;;0.60;0.60;;;;;;;17.44;74.62;98335.06;5140647;27;38966;-85
2021/07/14 04:25:22;;;;;;;0.57;0.57;;;;;;;17.49;74.69;98335.47;5147180;27;41308;-86
2021/07/14 04:27:50;;;;;;;0.70;0.70;;;;;;;17.48;74.45;98330.28;5140238;27;41945;-86
2021/07/14 04:30:19;;;;;;;0.60;0.60;;;;;;;17.60;74.57;98345.97;5139373;27;41122;-85
2021/07/14 04:32:46;;;;;;;1.80;0.70;;;;;;;17.66;74.78;98341.03;5140085;27;39260;-85
2021/07/14 04:35:13;;;;;;;0.90;0.90;;;;;;;17.67;74.46;98340.03;5139337;27;42130;-85
2021/07/14 04:37:42;;;;;;;0.40;0.40;;;;;;;17.71;74.22;98328.00;5149105;27;42205;-86
2021/07/14 04:40:10;;;;;;;0.50;0.50;;;;;;;17.73;73.98;98323.34;5160612;27;42462;-87
2021/07/14 04:42:37;;;;;;;0.70;0.70;;;;;;;17.70;74.33;98316.44;5178151;27;38778;-87
2021/07/14 04:45:06;;;;;;;0.87;0.87;;;;;;;17.75;73.89;98313.31;5177436;27;40588;-88
2021/07/14 04:47:33;;;;;;;0.77;0.73;;;;;;;17.76;74.23;98321.22;5159738;27;43256;-86
2021/07/14 04:50:00;;;;;;;0.77;0.70;;;;;;;17.82;73.85;98317.06;5160972;27;42547;-88
2021/07/14 04:52:27;;;;;;;0.83;0.83;;;;;;;17.89;74.09;98321.66;5141432;27;38933;-87
2021/07/14 04:54:54;;;;;;;0.60;0.60;;;;;;;17.98;73.84;98322.56;5143004;27;41325;-86
2021/07/14 04:57:21;;;;;;;0.70;0.70;;;;;;;18.08;73.44;98317.94;5148562;27;42168;-86
2021/07/14 04:59:48;;;;;;;0.97;0.87;;;;;;;18.21;72.88;98329.09;5147701;27;42281;-87
2021/07/14 05:02:16;;;;;;;0.60;0.60;;;;;;;18.23;72.74;98318.22;5144254;27;40345;-90
2021/07/14 05:04:43;;;;;;;0.50;0.50;;;;;;;18.34;72.47;98322.47;5138688;27;42356;-87
2021/07/14 05:07:11;;;;;;;0.50;0.50;;;;;;;18.43;72.20;98318.84;5139279;27;41845;-86
2021/07/14 05:09:38;;;;;;;0.80;0.80;;;;;;;18.55;71.77;98320.25;5138873;27;41329;-80
2021/07/14 05:12:06;;;;;;;0.60;0.60;;;;;;;18.67;71.99;98310.97;5176967;27;40301;-84
2021/07/14 05:14:33;;;;;;;0.53;0.53;;;;;;;18.87;71.64;98325.81;5154929;27;41855;-84
2021/07/14 05:17:00;;;;;;;0.50;0.50;;;;;;;19.00;71.10;98328.91;5172981;27;43402;-86
2021/07/14 05:19:27;;;;;;;0.50;0.50;;;;;;;19.04;70.29;98320.53;5155467;27;41510;-83
2021/07/14 05:21:55;;;;;;;0.70;0.70;;;;;;;19.20;70.46;98331.31;5174928;27;40095;-82
2021/07/14 05:24:22;;;;;;;0.50;0.50;;;;;;;19.20;70.04;98331.31;5139235;27;41090;-83
2021/07/14 05:26:49;;;;;;;0.60;0.60;;;;;;;19.34;69.85;98358.38;5138089;27;42119;-83
2021/07/14 05:29:16;;;;;;;0.50;0.50;;;;;;;19.14;69.79;98332.81;5135622;27;42456;-84
2021/07/14 05:31:43;;;;;;;0.80;0.80;;;;;;;19.32;69.19;98376.50;5138171;27;39834;-84
2021/07/14 05:34:10;;;;;;;0.50;0.50;;;;;;;19.24;69.18;98386.38;5153900;27;40656;-83
2021/07/14 05:36:38;;;;;;;0.60;0.60;;;;;;;19.11;68.84;98367.19;5137984;27;42803;-84
2021/07/14 05:39:05;;;;;;;0.37;0.37;;;;;;;19.11;69.00;98381.44;5155155;27;41403;-85
2021/07/14 05:41:32;;;;;;;0.70;0.70;;;;;;;19.09;69.00;98382.59;5138285;27;39195;-83
2021/07/14 05:43:59;;;;;;;0.63;0.63;;;;;;;18.97;69.21;98388.25;5134453;27;40575;-83
2021/07/14 05:46:26;;;;;;;0.63;0.60;;;;;;;18.92;69.59;98387.88;5117219;27;41721;-84
2021/07/14 05:48:55;;;;;;;0.90;0.90;;;;;;;18.82;69.55;98386.31;5134352;27;41144;-84
2021/07/14 05:51:22;;;;;;;2.80;1.20;;;;;;;18.82;70.24;98397.91;5117084;27;40283;-83
2021/07/14 05:53:51;;;;;;;0.60;0.60;;;;;;;18.76;70.42;98393.19;5134715;27;40716;-85
2021/07/14 05:56:18;;;;;;;0.57;0.57;;;;;;;18.69;70.24;98392.13;5116128;27;42042;-86
2021/07/14 05:58:45;;;;;;;0.60;0.60;;;;;;;18.79;70.41;98390.16;5115207;27;41309;-89
2021/07/14 06:01:12;;;;;;;0.40;0.40;;;;;;;18.64;70.20;98381.03;5118253;27;39111;-83
2021/07/14 06:03:39;;;;;;;0.60;0.60;;;;;;;18.75;70.48;98386.13;5146228;27;43669;-91
2021/07/14 06:06:07;;;;;;;0.70;0.70;;;;;;;18.77;70.36;98385.97;5155859;27;43349;-83
2021/07/14 06:08:34;;;;;;;0.60;0.60;;;;;;;18.60;70.56;98348.31;5137799;27;41295;-83
2021/07/14 06:11:02;;;;;;;0.97;0.70;;;;;;;18.75;69.94;98371.88;5132195;27;38957;-86
2021/07/14 06:13:29;;;;;;;0.70;0.70;;;;;;;18.62;70.30;98350.84;5140323;27;40661;-82
2021/07/14 06:15:56;;;;;;;1.03;0.90;;;;;;;18.56;70.08;98343.38;5156418;27;42936;-88
2021/07/14 06:18:23;;;;;;;0.93;0.93;;;;;;;18.57;70.15;98342.38;5154228;27;42239;-90
2021/07/14 06:20:50;;;;;;;0.70;0.60;;;;;;;18.67;69.31;98348.50;5154702;27;39798;-85
2021/07/14 06:23:17;;;;;;;1.00;1.00;;;;;;;18.58;69.12;98322.66;5136892;27;40658;-87
2021/07/14 06:25:44;;;;;;;1.10;1.00;;;;;;;18.79;68.44;98333.81;5154568;27;43049;-88
2021/07/14 06:28:38;;;;;;;1.17;1.07;;;;;;;18.89;68.40;98345.28;5175938;27;42479;-88
2021/07/14 06:31:05;;;;;;;1.40;1.30;;;;;;;18.88;68.27;98343.59;5146123;27;39058;-83
2021/07/14 06:33:35;;;;;;;1.73;0.97;;;;;;;19.00;67.99;98371.84;5140176;27;40758;-87
2021/07/14 06:36:03;;;;;;;0.77;0.77;;;;;;;18.99;68.03;98380.91;5133303;27;41981;-86
2021/07/14 06:38:30;;;;;;;1.00;0.90;;;;;;;18.85;68.13;98368.06;5116471;27;41209;-84
2021/07/14 06:40:58;;;;;;;0.80;0.80;;;;;;;18.74;68.15;98346.88;5129988;27;38928;-87
2021/07/14 06:43:41;;;;;;;1.07;0.97;;;;;;;18.67;68.71;98348.50;5137802;27;41919;-88
2021/07/14 06:46:09;;;;;;;1.23;1.07;;;;;;;18.67;69.31;98350.38;5136186;27;42606;-88
2021/07/14 06:48:36;;;;;;;0.97;0.93;;;;;;;18.67;69.55;98353.88;5136504;27;41147;-87
2021/07/14 06:51:04;;;;;;;0.80;0.80;;;;;;;18.65;69.43;98350.53;5153770;27;39222;-88
2021/07/14 06:53:31;;;;;;;1.30;1.20;;;;;;;18.59;69.31;98345.78;5136961;27;40748;-85
2021/07/14 06:55:58;;;;;;;1.47;1.33;;;;;;;18.53;69.44;98351.78;5132998;27;41727;-84
2021/07/14 06:58:26;;;;;;;0.80;0.80;;;;;;;18.50;69.96;98352.09;5133007;27;41401;-86
2021/07/14 07:00:53;;;;;;;0.90;0.90;;;;;;;18.44;70.23;98341.97;5133352;27;39196;-86
2021/07/14 07:03:21;;;;;;;2.13;1.47;;;;;;;18.44;70.27;98352.69;5116262;27;40922;-88
2021/07/14 07:05:49;;;;;;;0.90;0.90;;;;;;;18.43;70.51;98345.66;5135812;27;43195;-85
2021/07/14 07:08:17;;;;;;;1.47;1.20;;;;;;;18.40;70.84;98340.63;5153925;27;41342;-85
2021/07/14 07:10:46;;;;;;;1.33;1.23;;;;;;;18.31;71.23;98326.31;5155714;27;39083;-84
2021/07/14 07:13:16;;;;;;;0.70;0.70;;;;;;;18.35;70.84;98332.19;5157388;27;41995;-87
2021/07/14 07:15:43;;;;;;;1.20;1.10;;;;;;;18.29;70.97;98339.06;5156857;27;41969;-89
2021/07/14 07:18:10;;;;;;;0.77;0.77;;;;;;;18.37;71.23;98357.03;5156989;27;42430;-86
2021/07/14 07:20:39;;;;;;;0.67;0.67;;;;;;;18.33;71.39;98352.97;5154614;27;39017;-81
2021/07/14 07:23:06;;;;;;;1.57;1.10;;;;;;;18.27;71.99;98349.94;5159976;27;42027;-84
2021/07/14 07:25:33;;;;;;;1.40;1.30;;;;;;;18.15;72.75;98324.38;5154974;27;43065;-83
2021/07/14 07:28:30;;;;;;;1.20;1.10;;;;;;;18.24;73.33;98334.16;5186095;27;43129;-84
2021/07/14 07:30:57;;;;;;;1.27;1.23;;;;;;;18.15;72.95;98321.69;5168574;27;41537;-86
2021/07/14 07:33:24;;;;;;;1.13;1.00;;;;;;;17.96;73.23;98289.72;5142472;27;40652;-84
2021/07/14 07:35:52;;;;;;;1.13;1.03;;;;;;;18.10;73.86;98312.44;5174444;27;43938;-84
2021/07/14 07:38:19;;;;;;;0.70;0.70;;;;;;;18.03;73.93;98298.81;5138476;27;42054;-84
2021/07/14 07:40:47;;;;;;;1.80;1.10;;;;;;;18.00;73.94;98301.81;5153642;27;40060;-83
2021/07/14 07:43:14;;;;;;;0.93;0.93;;;;;;;17.96;74.55;98311.16;5157537;27;42738;-88
2021/07/14 07:45:41;;;;;;;1.27;1.17;;;;;;;18.00;74.59;98333.97;5133766;27;42117;-89
2021/07/14 07:48:34;;;;;;;1.03;0.93;;;;;;;17.85;75.40;98304.19;5119415;27;42657;-84
2021/07/14 07:51:02;;;;;;;1.03;1.03;;;;;;;17.88;75.51;98329.84;5116686;27;38946;-86
2021/07/14 07:53:30;;;;;;;1.33;1.23;;;;;;;17.84;75.55;98323.09;5132765;27;40695;-85
2021/07/14 07:55:57;;;;;;;1.27;1.17;;;;;;;17.87;75.39;98322.81;5133752;27;42852;-87
2021/07/14 07:58:24;;;;;;;1.80;1.50;;;;;;;17.95;76.25;98336.25;5135671;27;42343;-86
2021/07/14 08:00:52;;;;;;;1.67;1.57;;;;;;;17.96;75.65;98343.31;5140376;27;38919;-85
2021/07/14 08:03:44;;;;;;;1.83;1.53;;;;;;;17.91;75.90;98346.47;5157327;27;40772;-88
2021/07/14 08:06:12;;;;;;;2.63;1.60;;;;;;;17.84;76.30;98336.50;5137134;27;42163;-89
2021/07/14 08:08:39;;;;;;;1.47;1.37;;;;;;;17.81;76.17;98339.47;5119885;27;41834;-83
2021/07/14 08:11:08;;;;;;;1.37;1.17;;;;;;;17.90;76.38;98365.38;5150812;27;40185;-86
2021/07/14 08:13:35;;;;;;;1.73;1.33;;;;;;;17.78;76.46;98350.53;5139527;27;40994;-83
2021/07/14 08:16:02;;;;;;;1.50;1.40;;;;;;;17.78;76.38;98350.53;5156444;27;43890;-81
2021/07/14 08:18:29;;;;;;;1.20;1.10;;;;;;;17.87;76.49;98365.66;5139106;27;41369;-81
2021/07/14 08:20:57;;;;;;;1.23;1.10;;;;;;;17.83;76.65;98366.97;5155688;27;39922;-80
2021/07/14 08:23:26;;;;;;;2.23;1.93;;;;;;;17.76;77.05;98366.75;5140043;27;41742;-81
2021/07/14 08:25:53;;;;;;;1.47;1.37;;;;;;;17.76;77.28;98373.94;5156738;27;42768;-81
2021/07/14 08:28:20;;;;;;;1.40;1.30;;;;;;;17.85;77.15;98384.56;5156507;27;42546;-80
2021/07/14 08:30:48;;;;;;;2.50;2.03;;;;;;;17.77;77.42;98373.78;5152993;27;40060;-81
2021/07/14 08:33:16;;;;;;;1.63;1.37;;;;;;;17.73;77.60;98363.53;5135706;27;41682;-82
2021/07/14 08:35:43;;;;;;;2.10;1.80;;;;;;;17.78;78.22;98380.81;5146287;27;43083;-83
2021/07/14 08:38:10;;;;;;;2.33;1.80;;;;;;;17.81;77.98;98387.69;5156358;27;42570;-80
2021/07/14 08:40:39;;;;;;;1.57;1.47;;;;;;;17.80;78.16;98396.75;5135384;27;40211;-81
2021/07/14 08:43:10;;;;;;;1.50;1.40;;;;;;;17.56;78.24;98371.34;5117691;27;40581;-78
2021/07/14 08:46:10;;;;;;;1.27;1.27;;;;;;;17.68;78.77;98401.44;5135134;27;42633;-81
2021/07/14 08:48:38;;;;;;;2.07;1.97;;;;;;;17.67;78.54;98396.28;5118059;27;41524;-82
2021/07/14 08:51:06;;;;;;;1.40;1.30;;;;;;;17.68;78.74;98392.59;5154345;27;40101;-82
2021/07/14 08:53:33;;;;;;;1.60;1.33;;;;;;;17.58;78.89;98387.25;5117406;27;40717;-81
2021/07/14 08:56:01;;;;;;;1.87;1.77;;;;;;;17.62;79.14;98393.16;5155734;27;41710;-82
2021/07/14 08:58:29;;;;;;;1.60;1.50;;;;;;;17.60;79.40;98396.84;5155652;27;42573;-83
2021/07/14 09:00:58;;;;;;;1.07;0.77;;;;;;;17.56;79.35;98406.16;5151823;27;40310;-80
2021/07/14 09:03:27;;;;;;;1.43;1.33;;;;;;;17.51;79.56;98403.09;5135544;27;42718;-81
2021/07/14 09:05:54;;;;;;;1.67;1.57;;;;;;;17.60;79.56;98420.94;5153951;27;44646;-82
2021/07/14 09:08:21;;;;;;;1.63;1.53;;;;;;;17.59;79.38;98427.28;5117305;27;42546;-80
2021/07/14 09:10:48;;;;;;;5.47;1.77;;;;;;;17.60;80.02;98423.63;5152636;27;40326;-82
2021/07/14 09:13:17;;;;;;;0.80;0.70;;;;;;;17.57;79.82;98423.91;5155699;27;41508;-88
2021/07/14 09:15:45;;;;;;;1.03;0.93;;;;;;;17.58;79.92;98422.06;5155048;27;44463;-82
2021/07/14 09:18:21;;;;;;;1.17;1.07;;;;;;;17.52;80.09;98410.16;5172930;27;42580;-82
2021/07/14 09:21:20;;;;;;;1.40;1.10;;;;;;;17.70;80.11;98428.09;5157079;27;39186;-83
2021/07/14 09:23:47;;;;;;;1.20;1.20;;;;;;;17.65;80.10;98403.63;5138347;27;41625;-83
2021/07/14 09:26:15;;;;;;;1.40;1.30;;;;;;;17.68;80.06;98403.31;5138245;27;42595;-83
2021/07/14 09:28:43;;;;;;;1.50;1.40;;;;;;;17.70;80.00;98412.03;5158106;27;41435;-80
2021/07/14 09:31:12;;;;;;;2.23;2.03;;;;;;;17.71;79.56;98403.00;5155743;27;40261;-83
2021/07/14 09:33:42;;;;;;;1.30;1.03;;;;;;;17.75;79.62;98409.75;5155409;27;43876;-81
2021/07/14 09:36:09;;;;;;;1.37;1.20;;;;;;;17.83;79.68;98423.22;5137906;27;41736;-81
2021/07/14 09:38:39;;;;;;;1.97;1.50;;;;;;;17.77;79.30;98402.41;5137598;27;42617;-83
2021/07/14 09:41:08;;;;;;;1.40;1.30;;;;;;;17.91;79.33;98420.63;5137198;27;39135;-83
2021/07/14 09:43:37;;;;;;;1.37;1.20;;;;;;;17.98;79.19;98426.19;5137884;27;41255;-82
2021/07/14 09:46:06;;;;;;;1.30;1.00;;;;;;;17.99;79.34;98423.38;5137471;27;41855;-86
2021/07/14 09:48:35;;;;;;;1.20;1.20;;;;;;;17.96;79.24;98415.63;5137460;27;41503;-82
2021/07/14 09:51:06;;;;;;;1.30;1.20;;;;;;;17.97;79.56;98417.31;5154948;27;39358;-85
2021/07/14 09:53:34;;;;;;;0.80;0.80;;;;;;;17.98;79.38;98399.41;5136781;27;40694;-83
2021/07/14 09:56:11;;;;;;;2.20;1.83;;;;;;;18.07;79.54;98399.31;5154471;27;42969;-82
2021/07/14 09:58:40;;;;;;;0.93;0.93;;;;;;;18.12;79.23;98391.69;5145488;27;42334;-86
2021/07/14 10:01:12;;;;;;;1.53;1.43;;;;;;;18.24;78.97;98395.78;5148510;27;39239;-87
2021/07/14 10:03:48;;;;;;;1.27;1.17;;;;;;;18.50;78.68;98408.41;5137589;27;41719;-85
2021/07/14 10:06:16;;;;;;;1.00;0.90;;;;;;;18.67;78.73;98407.53;5137059;27;41823;-82
2021/07/14 10:08:45;;;;;;;0.70;0.70;;;;;;;18.81;78.42;98404.25;5136539;27;41329;-79
2021/07/14 10:11:18;;;;;;;0.80;0.80;;;;;;;18.83;77.63;98402.25;5136065;27;40359;-83
2021/07/14 10:13:54;;;;;;;0.97;0.97;;;;;;;18.88;77.85;98402.63;5153899;27;42520;-80
2021/07/14 10:16:23;;;;;;;1.10;1.10;;;;;;;18.95;77.71;98417.09;5150443;27;43713;-82
2021/07/14 10:19:02;;;;;;;1.47;1.37;;;;;;;18.94;77.83;98420.78;5116268;27;42569;-81
2021/07/14 10:21:31;;;;;;;1.67;1.17;;;;;;;18.80;77.01;98424.03;5148138;27;40008;-83
2021/07/14 10:24:00;;;;;;;1.13;1.03;;;;;;;18.88;77.68;98442.88;5115411;27;40640;-81
2021/07/14 10:26:27;;;;;;;0.87;0.80;;;;;;;18.94;77.40;98452.97;5150159;27;41952;-81
2021/07/14 10:28:56;;;;;;;0.87;0.87;;;;;;;19.04;77.25;98458.22;5137654;27;42375;-81
2021/07/14 10:31:25;;;;;;;0.70;0.70;;;;;;;19.10;77.00;98456.75;5136406;27;40236;-81
2021/07/14 10:33:53;;;;;;;0.80;0.80;;;;;;;19.21;76.99;98457.31;5154510;27;42712;-82
2021/07/14 10:36:24;;;;;;;0.77;0.77;;;;;;;19.32;76.67;98462.41;5135522;27;43076;-82
2021/07/14 10:38:55;;;;;;;0.70;0.70;;;;;;;19.36;75.51;98463.78;5172711;27;42563;-82
2021/07/14 10:41:22;;;;;;;0.97;0.80;;;;;;;19.41;75.99;98470.53;5136861;27;39243;-84
2021/07/14 10:43:54;;;;;;;0.87;0.87;;;;;;;19.61;75.16;98471.97;5139285;27;41748;-84
2021/07/14 10:46:23;;;;;;;0.70;0.70;;;;;;;19.75;74.08;98473.19;5174537;27;43135;-85
2021/07/14 10:48:53;;;;;;;0.93;0.83;;;;;;;19.99;74.42;98454.44;5156822;27;42466;-85
2021/07/14 10:51:21;;;;;;;1.13;1.03;;;;;;;20.33;74.16;98452.47;5133084;27;39034;-84
2021/07/14 10:53:52;;;;;;;1.13;1.13;;;;;;;20.62;73.64;98448.47;5132936;27;42012;-84
2021/07/14 10:56:21;;;;;;;0.67;0.67;;;;;;;20.75;73.83;98475.72;5133276;27;42998;-92
2021/07/14 10:58:52;;;;;;;0.97;0.80;;;;;;;20.65;73.10;98472.34;5136735;27;41941;-86
2021/07/14 11:01:42;;;;;;;0.87;0.87;;;;;;;20.53;73.70;98495.19;5132050;27;38947;-85
2021/07/14 11:04:45;;;;;;;0.90;0.90;;;;;;;20.48;73.64;98489.50;5116301;27;40560;-84
2021/07/14 11:07:13;;;;;;;0.80;0.80;;;;;;;20.53;73.75;98473.69;5114493;27;41675;-85
2021/07/14 11:09:42;;;;;;;0.67;0.67;;;;;;;20.86;72.94;98478.06;5125047;27;41520;-86
2021/07/14 11:12:12;;;;;;;0.97;0.63;;;;;;;21.15;72.01;98472.94;5136782;27;39547;-84
2021/07/14 11:14:40;;;;;;;0.63;0.60;;;;;;;21.60;71.94;98479.56;5135139;27;41880;-87
2021/07/14 11:17:08;;;;;;;0.63;0.63;;;;;;;22.05;70.10;98483.41;5136096;27;42639;-83
2021/07/14 11:19:46;;;;;;;0.80;0.80;;;;;;;22.43;67.69;98487.88;5152713;27;42582;-84
2021/07/14 11:22:15;;;;;;;0.60;0.60;;;;;;;22.72;66.33;98494.41;5132338;27;40587;-86
2021/07/14 11:24:56;;;;;;;0.53;0.53;;;;;;;23.14;66.63;98480.34;5115982;27;41893;-86
2021/07/14 11:27:47;;;;;;;0.60;0.60;;;;;;;23.45;64.56;98488.31;5132534;27;42738;-89
2021/07/14 11:30:39;;;;;;;0.60;0.60;;;;;;;23.84;63.38;98477.22;5157639;27;42669;-86
2021/07/14 11:33:34;;;;;;;0.60;0.60;;;;;;;24.17;62.60;98485.72;5146482;27;38773;-86
2021/07/14 11:36:04;;;;;;;0.53;0.50;;;;;;;24.09;61.94;98465.03;5135590;27;41135;-84
2021/07/14 11:38:56;;;;;;;0.70;0.70;;;;;;;23.85;62.04;98463.50;5153345;27;42220;-84
2021/07/14 11:41:28;;;;;;;0.40;0.40;;;;;;;24.08;62.01;98473.34;5134758;27;41226;-84
2021/07/14 11:43:57;;;;;;;0.40;0.40;;;;;;;24.67;59.47;98480.22;5133576;27;20239;-86
2021/07/14 11:46:26;;;;;;;0.50;0.50;;;;;;;24.64;57.81;98486.00;5114465;27;40557;-85
2021/07/14 11:49:01;;;;;;;0.63;0.60;;;;;;;25.03;56.89;98474.72;5115219;27;41627;-86
2021/07/14 11:51:35;;;;;;;0.70;0.70;;;;;;;24.98;57.48;98462.78;5131602;27;41531;-86